Mar'Ina Gorka, Belarus

2:06 AM MSK on July 27, 2016 (GMT +0300)
Minsk-2 | | Change Station

Elev 669 ft 53.88 °N, 28.03 °E | Updated 6 minutes ago

Mist
Mist
61 °F
Feels Like 61 °F
N
0
Wind Variable Wind from North

Today
High -- | Low -- °F
--% Chance of Precip.
Yesterday
High -- | Low -- °F
Precip. -- in
Pressure 30.06 in
Visibility -9999.0 miles
Clouds
Dew Point 61 °F
Humidity 100%
Rainfall 0.00 in
Snow Depth Not available.
5:15 AM 9:11 PM
Waning Gibbous, 50% visible
METAR UMMS 262300Z 00000MPS 3400 BR NSC 16/16 Q1018 R31/CLRD// NOSIG
Pressure 30.06 in
Visibility -9999.0 miles
Clouds
Dew Point 61 °F
Humidity 100%
Rainfall 0.00 in
Snow Depth Not available.
5:15 AM 9:11 PM
Waning Gibbous, 50% visible
METAR UMMS 262300Z 00000MPS 3400 BR NSC 16/16 Q1018 R31/CLRD// NOSIG

10-Day Weather Forecast

×

Almanac

Astronomy

Jul. 27, 2016 Rise Set
Actual Time
Civil Twilight
Nautical Twilight
Astronomical Twilight
Moon
Length of Visible Light
Length of Day
Tomorrow will be .
, % of the Moon is Illuminated

Today's Extremes

Country Highs Country Lows

Community

WunderPhotos

Upload Photos

1,927,729 photos uploaded!

WunderBlog® & News

Nearby

Air Quality

  Air Quality AQ Index Pollutant
Not available.

Snow Depth

Station Depth Elevation

Earthquake Activity

City Distance Mag. Time & Date
Minimum magnitude displayed is 2.5.

Coastal Water Temperatures

Place Temperature

Stations

Nearby Weather Stations

Station Location Temp. Windchill Dew Point Humidity Wind Precip. Elev Updated Type